sensor_id;sensor_type;location;lat;lon;timestamp;P1;durP1;ratioP1;P2;durP2;ratioP2
28166;SDS011;15455;53.376;-6.262;2023-04-03T00:00:35;3.92;;;1.30;;
28166;SDS011;15455;53.376;-6.262;2023-04-03T00:03:21;8.80;;;1.45;;
28166;SDS011;15455;53.376;-6.262;2023-04-03T00:06:07;3.13;;;1.20;;
28166;SDS011;15455;53.376;-6.262;2023-04-03T00:08:53;3.42;;;1.27;;
28166;SDS011;15455;53.376;-6.262;2023-04-03T00:11:39;4.28;;;1.60;;
28166;SDS011;15455;53.376;-6.262;2023-04-03T00:14:24;5.25;;;1.17;;
28166;SDS011;15455;53.376;-6.262;2023-04-03T00:17:10;6.45;;;1.25;;
28166;SDS011;15455;53.376;-6.262;2023-04-03T00:19:56;4.65;;;1.15;;
28166;SDS011;15455;53.376;-6.262;2023-04-03T00:22:41;2.97;;;1.30;;
28166;SDS011;15455;53.376;-6.262;2023-04-03T00:25:26;4.22;;;1.40;;
28166;SDS011;15455;53.376;-6.262;2023-04-03T00:28:13;5.25;;;1.25;;
28166;SDS011;15455;53.376;-6.262;2023-04-03T00:30:58;6.43;;;1.73;;
28166;SDS011;15455;53.376;-6.262;2023-04-03T00:33:43;5.72;;;1.98;;
28166;SDS011;15455;53.376;-6.262;2023-04-03T00:36:29;4.93;;;1.70;;
28166;SDS011;15455;53.376;-6.262;2023-04-03T00:39:15;4.40;;;1.83;;
28166;SDS011;15455;53.376;-6.262;2023-04-03T00:42:00;3.50;;;2.53;;
28166;SDS011;15455;53.376;-6.262;2023-04-03T00:47:31;3.53;;;1.98;;
28166;SDS011;15455;53.376;-6.262;2023-04-03T00:50:17;5.35;;;1.88;;
28166;SDS011;15455;53.376;-6.262;2023-04-03T00:53:03;5.60;;;2.00;;
28166;SDS011;15455;53.376;-6.262;2023-04-03T00:55:50;2.53;;;1.50;;
28166;SDS011;15455;53.376;-6.262;2023-04-03T00:58:39;3.15;;;1.30;;
28166;SDS011;15455;53.376;-6.262;2023-04-03T01:01:29;3.92;;;1.40;;
28166;SDS011;15455;53.376;-6.262;2023-04-03T01:04:29;1.63;;;1.52;;
28166;SDS011;15455;53.376;-6.262;2023-04-03T01:07:20;3.47;;;1.50;;
28166;SDS011;15455;53.376;-6.262;2023-04-03T01:10:10;5.82;;;1.58;;
28166;SDS011;15455;53.376;-6.262;2023-04-03T01:12:59;2.38;;;1.75;;
28166;SDS011;15455;53.376;-6.262;2023-04-03T01:15:45;4.53;;;2.17;;
28166;SDS011;15455;53.376;-6.262;2023-04-03T01:18:31;2.35;;;1.65;;
28166;SDS011;15455;53.376;-6.262;2023-04-03T01:24:17;8.20;;;1.85;;
28166;SDS011;15455;53.376;-6.262;2023-04-03T01:27:12;5.45;;;2.03;;
28166;SDS011;15455;53.376;-6.262;2023-04-03T01:29:57;3.42;;;1.63;;
28166;SDS011;15455;53.376;-6.262;2023-04-03T01:32:43;3.40;;;1.40;;
28166;SDS011;15455;53.376;-6.262;2023-04-03T01:35:30;7.63;;;2.03;;
28166;SDS011;15455;53.376;-6.262;2023-04-03T01:38:16;5.10;;;2.28;;
28166;SDS011;15455;53.376;-6.262;2023-04-03T01:41:01;9.48;;;2.22;;
28166;SDS011;15455;53.376;-6.262;2023-04-03T01:43:47;9.05;;;2.15;;
28166;SDS011;15455;53.376;-6.262;2023-04-03T01:46:33;2.03;;;1.25;;
28166;SDS011;15455;53.376;-6.262;2023-04-03T01:49:19;2.40;;;1.42;;
28166;SDS011;15455;53.376;-6.262;2023-04-03T01:52:05;3.47;;;1.50;;
28166;SDS011;15455;53.376;-6.262;2023-04-03T01:54:50;1.77;;;1.55;;
28166;SDS011;15455;53.376;-6.262;2023-04-03T01:57:35;2.03;;;1.48;;
28166;SDS011;15455;53.376;-6.262;2023-04-03T02:00:21;9.32;;;1.70;;
28166;SDS011;15455;53.376;-6.262;2023-04-03T02:03:07;2.67;;;1.35;;
28166;SDS011;15455;53.376;-6.262;2023-04-03T02:05:53;2.85;;;1.55;;
28166;SDS011;15455;53.376;-6.262;2023-04-03T02:08:38;2.40;;;1.92;;
28166;SDS011;15455;53.376;-6.262;2023-04-03T02:11:23;6.07;;;1.73;;
28166;SDS011;15455;53.376;-6.262;2023-04-03T02:14:10;3.88;;;1.55;;
28166;SDS011;15455;53.376;-6.262;2023-04-03T02:16:55;10.48;;;1.70;;
28166;SDS011;15455;53.376;-6.262;2023-04-03T02:19:41;5.65;;;1.63;;
28166;SDS011;15455;53.376;-6.262;2023-04-03T02:22:26;3.28;;;1.75;;
28166;SDS011;15455;53.376;-6.262;2023-04-03T02:25:11;2.67;;;1.70;;
28166;SDS011;15455;53.376;-6.262;2023-04-03T02:27:58;2.45;;;1.52;;
28166;SDS011;15455;53.376;-6.262;2023-04-03T02:30:43;3.08;;;1.50;;
28166;SDS011;15455;53.376;-6.262;2023-04-03T02:33:29;4.43;;;1.35;;
28166;SDS011;15455;53.376;-6.262;2023-04-03T02:36:16;2.47;;;2.00;;
28166;SDS011;15455;53.376;-6.262;2023-04-03T02:39:07;4.70;;;1.70;;
28166;SDS011;15455;53.376;-6.262;2023-04-03T02:41:53;3.53;;;1.70;;
28166;SDS011;15455;53.376;-6.262;2023-04-03T02:44:41;7.80;;;1.85;;
28166;SDS011;15455;53.376;-6.262;2023-04-03T02:47:27;10.32;;;2.13;;
28166;SDS011;15455;53.376;-6.262;2023-04-03T02:50:13;5.88;;;1.58;;
28166;SDS011;15455;53.376;-6.262;2023-04-03T02:52:58;4.90;;;1.65;;
28166;SDS011;15455;53.376;-6.262;2023-04-03T02:55:44;3.33;;;2.17;;
28166;SDS011;15455;53.376;-6.262;2023-04-03T02:58:30;7.05;;;1.90;;
28166;SDS011;15455;53.376;-6.262;2023-04-03T03:01:17;5.05;;;2.30;;
28166;SDS011;15455;53.376;-6.262;2023-04-03T03:04:03;5.65;;;2.33;;
28166;SDS011;15455;53.376;-6.262;2023-04-03T03:06:48;3.72;;;2.35;;
28166;SDS011;15455;53.376;-6.262;2023-04-03T03:09:33;7.20;;;2.40;;
28166;SDS011;15455;53.376;-6.262;2023-04-03T03:12:19;11.15;;;3.10;;
28166;SDS011;15455;53.376;-6.262;2023-04-03T03:15:07;10.88;;;2.58;;
28166;SDS011;15455;53.376;-6.262;2023-04-03T03:17:53;3.97;;;2.38;;
28166;SDS011;15455;53.376;-6.262;2023-04-03T03:20:38;3.60;;;2.28;;
28166;SDS011;15455;53.376;-6.262;2023-04-03T03:23:24;3.05;;;1.90;;
28166;SDS011;15455;53.376;-6.262;2023-04-03T03:26:11;6.07;;;2.40;;
28166;SDS011;15455;53.376;-6.262;2023-04-03T03:28:57;4.20;;;2.00;;
28166;SDS011;15455;53.376;-6.262;2023-04-03T03:31:44;6.45;;;1.70;;
28166;SDS011;15455;53.376;-6.262;2023-04-03T03:34:29;4.15;;;1.77;;
28166;SDS011;15455;53.376;-6.262;2023-04-03T03:37:15;11.40;;;2.30;;
28166;SDS011;15455;53.376;-6.262;2023-04-03T03:40:00;2.40;;;1.50;;
28166;SDS011;15455;53.376;-6.262;2023-04-03T03:42:46;5.20;;;2.45;;
28166;SDS011;15455;53.376;-6.262;2023-04-03T03:45:31;4.80;;;1.75;;
28166;SDS011;15455;53.376;-6.262;2023-04-03T03:48:16;10.25;;;1.90;;
28166;SDS011;15455;53.376;-6.262;2023-04-03T03:51:02;4.07;;;1.92;;
28166;SDS011;15455;53.376;-6.262;2023-04-03T03:53:52;6.35;;;2.28;;
28166;SDS011;15455;53.376;-6.262;2023-04-03T03:56:38;6.90;;;2.60;;
28166;SDS011;15455;53.376;-6.262;2023-04-03T03:59:24;3.17;;;2.08;;
28166;SDS011;15455;53.376;-6.262;2023-04-03T04:02:10;9.30;;;2.70;;
28166;SDS011;15455;53.376;-6.262;2023-04-03T04:04:56;9.35;;;2.17;;
28166;SDS011;15455;53.376;-6.262;2023-04-03T04:07:41;8.27;;;2.80;;
28166;SDS011;15455;53.376;-6.262;2023-04-03T04:10:27;4.65;;;2.58;;
28166;SDS011;15455;53.376;-6.262;2023-04-03T04:13:14;7.57;;;3.03;;
28166;SDS011;15455;53.376;-6.262;2023-04-03T04:15:59;6.57;;;3.10;;
28166;SDS011;15455;53.376;-6.262;2023-04-03T04:18:45;7.28;;;3.35;;
28166;SDS011;15455;53.376;-6.262;2023-04-03T04:21:31;8.70;;;3.50;;
28166;SDS011;15455;53.376;-6.262;2023-04-03T04:24:16;9.88;;;3.90;;
28166;SDS011;15455;53.376;-6.262;2023-04-03T04:27:02;12.60;;;4.38;;
28166;SDS011;15455;53.376;-6.262;2023-04-03T04:29:49;13.02;;;4.32;;
28166;SDS011;15455;53.376;-6.262;2023-04-03T04:32:36;10.18;;;3.70;;
28166;SDS011;15455;53.376;-6.262;2023-04-03T04:35:22;5.55;;;3.33;;
28166;SDS011;15455;53.376;-6.262;2023-04-03T04:38:09;11.45;;;3.70;;
28166;SDS011;15455;53.376;-6.262;2023-04-03T04:40:55;11.23;;;3.95;;
28166;SDS011;15455;53.376;-6.262;2023-04-03T04:43:41;7.95;;;3.63;;
28166;SDS011;15455;53.376;-6.262;2023-04-03T04:46:27;7.32;;;4.25;;
28166;SDS011;15455;53.376;-6.262;2023-04-03T04:49:16;8.48;;;4.15;;
28166;SDS011;15455;53.376;-6.262;2023-04-03T04:52:01;7.38;;;3.90;;
28166;SDS011;15455;53.376;-6.262;2023-04-03T04:54:49;14.65;;;4.47;;
28166;SDS011;15455;53.376;-6.262;2023-04-03T04:57:34;6.78;;;4.05;;
28166;SDS011;15455;53.376;-6.262;2023-04-03T05:00:21;8.63;;;3.70;;
28166;SDS011;15455;53.376;-6.262;2023-04-03T05:03:07;8.90;;;4.40;;
28166;SDS011;15455;53.376;-6.262;2023-04-03T05:05:53;10.80;;;4.97;;
28166;SDS011;15455;53.376;-6.262;2023-04-03T05:08:39;11.48;;;4.75;;
28166;SDS011;15455;53.376;-6.262;2023-04-03T05:11:25;9.70;;;4.63;;
28166;SDS011;15455;53.376;-6.262;2023-04-03T05:14:11;7.80;;;4.85;;
28166;SDS011;15455;53.376;-6.262;2023-04-03T05:16:57;8.85;;;5.38;;
28166;SDS011;15455;53.376;-6.262;2023-04-03T05:19:46;12.48;;;6.05;;
28166;SDS011;15455;53.376;-6.262;2023-04-03T05:22:32;11.52;;;5.95;;
28166;SDS011;15455;53.376;-6.262;2023-04-03T05:25:23;12.80;;;4.88;;
28166;SDS011;15455;53.376;-6.262;2023-04-03T05:28:13;11.52;;;5.55;;
28166;SDS011;15455;53.376;-6.262;2023-04-03T05:30:59;13.73;;;5.57;;
28166;SDS011;15455;53.376;-6.262;2023-04-03T05:33:50;8.87;;;5.37;;
28166;SDS011;15455;53.376;-6.262;2023-04-03T05:36:36;12.38;;;5.60;;
28166;SDS011;15455;53.376;-6.262;2023-04-03T05:39:25;11.40;;;5.43;;
28166;SDS011;15455;53.376;-6.262;2023-04-03T05:42:10;13.68;;;5.35;;
28166;SDS011;15455;53.376;-6.262;2023-04-03T05:44:56;9.77;;;5.13;;
28166;SDS011;15455;53.376;-6.262;2023-04-03T05:47:42;14.63;;;5.85;;
28166;SDS011;15455;53.376;-6.262;2023-04-03T05:50:27;11.35;;;4.75;;
28166;SDS011;15455;53.376;-6.262;2023-04-03T05:53:15;9.57;;;5.75;;
28166;SDS011;15455;53.376;-6.262;2023-04-03T05:56:06;13.20;;;5.47;;
28166;SDS011;15455;53.376;-6.262;2023-04-03T05:58:56;8.95;;;4.90;;
28166;SDS011;15455;53.376;-6.262;2023-04-03T06:01:42;10.73;;;5.72;;
28166;SDS011;15455;53.376;-6.262;2023-04-03T06:04:29;8.93;;;5.22;;
28166;SDS011;15455;53.376;-6.262;2023-04-03T06:07:15;10.93;;;5.38;;
28166;SDS011;15455;53.376;-6.262;2023-04-03T06:10:04;14.60;;;5.03;;
28166;SDS011;15455;53.376;-6.262;2023-04-03T06:12:50;13.00;;;5.93;;
28166;SDS011;15455;53.376;-6.262;2023-04-03T06:15:36;18.98;;;7.32;;
28166;SDS011;15455;53.376;-6.262;2023-04-03T06:18:26;13.35;;;7.05;;
28166;SDS011;15455;53.376;-6.262;2023-04-03T06:21:13;12.63;;;6.82;;
28166;SDS011;15455;53.376;-6.262;2023-04-03T06:23:58;20.70;;;7.53;;
28166;SDS011;15455;53.376;-6.262;2023-04-03T06:26:44;22.02;;;7.72;;
28166;SDS011;15455;53.376;-6.262;2023-04-03T06:29:30;18.55;;;7.63;;
28166;SDS011;15455;53.376;-6.262;2023-04-03T06:32:16;19.90;;;7.82;;
28166;SDS011;15455;53.376;-6.262;2023-04-03T06:35:02;15.23;;;7.15;;
28166;SDS011;15455;53.376;-6.262;2023-04-03T06:37:48;24.73;;;8.32;;
28166;SDS011;15455;53.376;-6.262;2023-04-03T06:40:34;24.60;;;7.78;;
28166;SDS011;15455;53.376;-6.262;2023-04-03T06:43:20;18.38;;;7.15;;
28166;SDS011;15455;53.376;-6.262;2023-04-03T06:46:18;27.95;;;7.70;;
28166;SDS011;15455;53.376;-6.262;2023-04-03T06:49:05;14.75;;;7.05;;
28166;SDS011;15455;53.376;-6.262;2023-04-03T06:51:53;26.05;;;6.70;;
28166;SDS011;15455;53.376;-6.262;2023-04-03T06:54:40;16.80;;;8.43;;
28166;SDS011;15455;53.376;-6.262;2023-04-03T06:57:26;27.58;;;7.63;;
28166;SDS011;15455;53.376;-6.262;2023-04-03T07:00:12;15.00;;;6.63;;
28166;SDS011;15455;53.376;-6.262;2023-04-03T07:02:58;10.38;;;6.32;;
28166;SDS011;15455;53.376;-6.262;2023-04-03T07:05:43;11.15;;;5.88;;
28166;SDS011;15455;53.376;-6.262;2023-04-03T07:08:30;19.17;;;6.45;;
28166;SDS011;15455;53.376;-6.262;2023-04-03T07:11:16;13.70;;;7.10;;
28166;SDS011;15455;53.376;-6.262;2023-04-03T07:14:02;17.10;;;5.93;;
28166;SDS011;15455;53.376;-6.262;2023-04-03T07:16:47;16.98;;;7.03;;
28166;SDS011;15455;53.376;-6.262;2023-04-03T07:19:33;25.67;;;6.53;;
28166;SDS011;15455;53.376;-6.262;2023-04-03T07:22:18;15.48;;;7.15;;
28166;SDS011;15455;53.376;-6.262;2023-04-03T07:25:04;13.63;;;6.18;;
28166;SDS011;15455;53.376;-6.262;2023-04-03T07:27:51;16.92;;;6.85;;
28166;SDS011;15455;53.376;-6.262;2023-04-03T07:30:43;14.43;;;5.80;;
28166;SDS011;15455;53.376;-6.262;2023-04-03T07:33:33;20.52;;;6.22;;
28166;SDS011;15455;53.376;-6.262;2023-04-03T07:36:20;16.42;;;5.75;;
28166;SDS011;15455;53.376;-6.262;2023-04-03T07:39:07;12.27;;;5.75;;
28166;SDS011;15455;53.376;-6.262;2023-04-03T07:41:53;25.25;;;5.63;;
28166;SDS011;15455;53.376;-6.262;2023-04-03T07:44:40;14.05;;;5.07;;
28166;SDS011;15455;53.376;-6.262;2023-04-03T07:47:26;19.35;;;5.25;;
28166;SDS011;15455;53.376;-6.262;2023-04-03T07:50:12;24.85;;;4.97;;
28166;SDS011;15455;53.376;-6.262;2023-04-03T07:52:58;16.67;;;5.03;;
28166;SDS011;15455;53.376;-6.262;2023-04-03T07:55:47;11.63;;;3.65;;
28166;SDS011;15455;53.376;-6.262;2023-04-03T07:58:34;11.43;;;4.18;;
28166;SDS011;15455;53.376;-6.262;2023-04-03T08:01:20;13.95;;;3.70;;
28166;SDS011;15455;53.376;-6.262;2023-04-03T08:04:05;11.05;;;3.55;;
28166;SDS011;15455;53.376;-6.262;2023-04-03T08:06:52;12.65;;;3.90;;
28166;SDS011;15455;53.376;-6.262;2023-04-03T08:09:38;9.20;;;3.67;;
28166;SDS011;15455;53.376;-6.262;2023-04-03T08:12:23;7.65;;;3.38;;
28166;SDS011;15455;53.376;-6.262;2023-04-03T08:15:08;15.93;;;4.97;;
28166;SDS011;15455;53.376;-6.262;2023-04-03T08:17:54;13.40;;;3.35;;
28166;SDS011;15455;53.376;-6.262;2023-04-03T08:20:40;13.30;;;3.80;;
28166;SDS011;15455;53.376;-6.262;2023-04-03T08:23:26;8.57;;;3.53;;
28166;SDS011;15455;53.376;-6.262;2023-04-03T08:26:13;10.52;;;2.70;;
28166;SDS011;15455;53.376;-6.262;2023-04-03T08:29:01;12.50;;;3.60;;
28166;SDS011;15455;53.376;-6.262;2023-04-03T08:31:47;12.75;;;4.03;;
28166;SDS011;15455;53.376;-6.262;2023-04-03T08:34:34;13.85;;;3.70;;
28166;SDS011;15455;53.376;-6.262;2023-04-03T08:37:22;12.55;;;3.10;;
28166;SDS011;15455;53.376;-6.262;2023-04-03T08:40:08;12.82;;;2.88;;
28166;SDS011;15455;53.376;-6.262;2023-04-03T08:46:04;14.93;;;3.33;;
28166;SDS011;15455;53.376;-6.262;2023-04-03T08:48:55;11.85;;;3.22;;
28166;SDS011;15455;53.376;-6.262;2023-04-03T08:51:44;17.25;;;3.78;;
28166;SDS011;15455;53.376;-6.262;2023-04-03T08:54:34;11.35;;;3.00;;
28166;SDS011;15455;53.376;-6.262;2023-04-03T08:57:28;8.13;;;3.80;;
28166;SDS011;15455;53.376;-6.262;2023-04-03T09:00:20;9.45;;;3.15;;
28166;SDS011;15455;53.376;-6.262;2023-04-03T09:03:11;14.85;;;4.30;;
28166;SDS011;15455;53.376;-6.262;2023-04-03T09:06:04;8.40;;;3.35;;
28166;SDS011;15455;53.376;-6.262;2023-04-03T09:18:23;7.50;;;3.20;;
28166;SDS011;15455;53.376;-6.262;2023-04-03T09:24:01;7.57;;;3.15;;
28166;SDS011;15455;53.376;-6.262;2023-04-03T09:26:56;10.50;;;2.95;;
28166;SDS011;15455;53.376;-6.262;2023-04-03T09:29:49;7.95;;;3.00;;
28166;SDS011;15455;53.376;-6.262;2023-04-03T09:32:38;23.70;;;3.55;;
28166;SDS011;15455;53.376;-6.262;2023-04-03T09:35:25;11.00;;;2.92;;
28166;SDS011;15455;53.376;-6.262;2023-04-03T09:38:31;6.53;;;3.03;;
28166;SDS011;15455;53.376;-6.262;2023-04-03T09:41:18;5.78;;;2.65;;
28166;SDS011;15455;53.376;-6.262;2023-04-03T09:44:17;7.72;;;2.55;;
28166;SDS011;15455;53.376;-6.262;2023-04-03T09:47:23;11.23;;;3.05;;
28166;SDS011;15455;53.376;-6.262;2023-04-03T09:52:59;11.32;;;2.92;;
28166;SDS011;15455;53.376;-6.262;2023-04-03T09:55:50;13.57;;;3.22;;
28166;SDS011;15455;53.376;-6.262;2023-04-03T09:58:40;12.38;;;3.30;;
28166;SDS011;15455;53.376;-6.262;2023-04-03T10:01:35;12.57;;;3.00;;
28166;SDS011;15455;53.376;-6.262;2023-04-03T10:04:22;31.63;;;4.75;;
28166;SDS011;15455;53.376;-6.262;2023-04-03T10:10:19;9.93;;;3.50;;
28166;SDS011;15455;53.376;-6.262;2023-04-03T10:16:07;14.23;;;4.05;;
28166;SDS011;15455;53.376;-6.262;2023-04-03T10:19:03;14.15;;;3.38;;
28166;SDS011;15455;53.376;-6.262;2023-04-03T10:21:59;10.90;;;3.10;;
28166;SDS011;15455;53.376;-6.262;2023-04-03T10:24:59;8.95;;;3.58;;
28166;SDS011;15455;53.376;-6.262;2023-04-03T10:42:39;13.70;;;3.63;;
28166;SDS011;15455;53.376;-6.262;2023-04-03T10:48:40;20.92;;;3.40;;
28166;SDS011;15455;53.376;-6.262;2023-04-03T10:51:43;17.73;;;3.65;;
28166;SDS011;15455;53.376;-6.262;2023-04-03T10:54:36;22.63;;;4.53;;
28166;SDS011;15455;53.376;-6.262;2023-04-03T10:57:25;19.67;;;4.35;;
28166;SDS011;15455;53.376;-6.262;2023-04-03T11:00:14;16.10;;;3.92;;
28166;SDS011;15455;53.376;-6.262;2023-04-03T11:03:05;14.00;;;3.50;;
28166;SDS011;15455;53.376;-6.262;2023-04-03T11:05:57;10.65;;;4.40;;
28166;SDS011;15455;53.376;-6.262;2023-04-03T11:08:50;24.48;;;4.07;;
28166;SDS011;15455;53.376;-6.262;2023-04-03T11:11:41;23.38;;;4.00;;
28166;SDS011;15455;53.376;-6.262;2023-04-03T11:14:29;18.75;;;4.30;;
28166;SDS011;15455;53.376;-6.262;2023-04-03T11:20:26;16.35;;;4.80;;
28166;SDS011;15455;53.376;-6.262;2023-04-03T11:23:21;18.83;;;3.72;;
28166;SDS011;15455;53.376;-6.262;2023-04-03T11:26:27;15.68;;;4.10;;
28166;SDS011;15455;53.376;-6.262;2023-04-03T11:29:18;12.43;;;3.60;;
28166;SDS011;15455;53.376;-6.262;2023-04-03T11:35:57;25.85;;;3.83;;
28166;SDS011;15455;53.376;-6.262;2023-04-03T11:39:25;19.45;;;4.40;;
28166;SDS011;15455;53.376;-6.262;2023-04-03T11:42:16;27.80;;;5.30;;
28166;SDS011;15455;53.376;-6.262;2023-04-03T11:54:34;34.13;;;9.43;;
28166;SDS011;15455;53.376;-6.262;2023-04-03T11:58:12;25.60;;;4.22;;
28166;SDS011;15455;53.376;-6.262;2023-04-03T12:01:10;17.30;;;3.78;;
28166;SDS011;15455;53.376;-6.262;2023-04-03T12:04:18;8.65;;;3.35;;
28166;SDS011;15455;53.376;-6.262;2023-04-03T12:07:13;22.58;;;6.70;;
28166;SDS011;15455;53.376;-6.262;2023-04-03T12:10:13;17.27;;;4.75;;
28166;SDS011;15455;53.376;-6.262;2023-04-03T12:13:15;18.25;;;4.55;;
28166;SDS011;15455;53.376;-6.262;2023-04-03T12:16:03;18.48;;;4.15;;
28166;SDS011;15455;53.376;-6.262;2023-04-03T12:24:45;25.85;;;4.70;;
28166;SDS011;15455;53.376;-6.262;2023-04-03T12:27:42;22.33;;;3.80;;
28166;SDS011;15455;53.376;-6.262;2023-04-03T12:30:29;18.83;;;4.18;;
28166;SDS011;15455;53.376;-6.262;2023-04-03T12:33:20;18.98;;;4.38;;
28166;SDS011;15455;53.376;-6.262;2023-04-03T12:36:23;18.88;;;3.63;;
28166;SDS011;15455;53.376;-6.262;2023-04-03T12:45:40;16.95;;;4.63;;
28166;SDS011;15455;53.376;-6.262;2023-04-03T12:48:30;18.15;;;4.55;;
28166;SDS011;15455;53.376;-6.262;2023-04-03T12:51:25;18.13;;;3.38;;
28166;SDS011;15455;53.376;-6.262;2023-04-03T12:54:19;13.60;;;3.35;;
28166;SDS011;15455;53.376;-6.262;2023-04-03T12:57:12;16.23;;;4.00;;
28166;SDS011;15455;53.376;-6.262;2023-04-03T13:00:17;18.88;;;3.88;;
28166;SDS011;15455;53.376;-6.262;2023-04-03T13:03:24;20.42;;;4.25;;
28166;SDS011;15455;53.376;-6.262;2023-04-03T13:06:22;24.63;;;4.32;;
28166;SDS011;15455;53.376;-6.262;2023-04-03T13:12:22;15.75;;;3.40;;
28166;SDS011;15455;53.376;-6.262;2023-04-03T13:15:15;18.40;;;4.13;;
28166;SDS011;15455;53.376;-6.262;2023-04-03T13:18:03;18.17;;;4.00;;
28166;SDS011;15455;53.376;-6.262;2023-04-03T13:20:48;31.08;;;4.10;;
28166;SDS011;15455;53.376;-6.262;2023-04-03T13:23:35;23.45;;;3.63;;
28166;SDS011;15455;53.376;-6.262;2023-04-03T13:26:26;21.95;;;4.72;;
28166;SDS011;15455;53.376;-6.262;2023-04-03T13:29:48;20.35;;;3.63;;
28166;SDS011;15455;53.376;-6.262;2023-04-03T13:32:26;15.98;;;2.83;;
28166;SDS011;15455;53.376;-6.262;2023-04-03T13:38:30;20.85;;;3.78;;
28166;SDS011;15455;53.376;-6.262;2023-04-03T13:41:26;16.20;;;3.90;;
28166;SDS011;15455;53.376;-6.262;2023-04-03T13:50:00;16.73;;;3.17;;
28166;SDS011;15455;53.376;-6.262;2023-04-03T13:58:55;16.27;;;4.07;;
28166;SDS011;15455;53.376;-6.262;2023-04-03T14:01:45;19.50;;;3.72;;
28166;SDS011;15455;53.376;-6.262;2023-04-03T14:05:02;15.05;;;3.22;;
28166;SDS011;15455;53.376;-6.262;2023-04-03T14:07:48;8.30;;;3.60;;
28166;SDS011;15455;53.376;-6.262;2023-04-03T14:10:34;16.75;;;3.25;;
28166;SDS011;15455;53.376;-6.262;2023-04-03T14:13:19;15.75;;;3.50;;
28166;SDS011;15455;53.376;-6.262;2023-04-03T14:16:06;17.90;;;3.25;;
28166;SDS011;15455;53.376;-6.262;2023-04-03T14:19:00;19.80;;;3.75;;
28166;SDS011;15455;53.376;-6.262;2023-04-03T14:21:45;12.02;;;4.40;;
28166;SDS011;15455;53.376;-6.262;2023-04-03T14:24:31;11.55;;;3.78;;
28166;SDS011;15455;53.376;-6.262;2023-04-03T14:30:07;17.38;;;3.25;;
28166;SDS011;15455;53.376;-6.262;2023-04-03T14:33:00;16.20;;;4.20;;
28166;SDS011;15455;53.376;-6.262;2023-04-03T14:35:46;13.48;;;4.63;;
28166;SDS011;15455;53.376;-6.262;2023-04-03T14:38:33;17.52;;;5.28;;
28166;SDS011;15455;53.376;-6.262;2023-04-03T14:41:20;13.68;;;3.58;;
28166;SDS011;15455;53.376;-6.262;2023-04-03T14:44:07;20.08;;;4.93;;
28166;SDS011;15455;53.376;-6.262;2023-04-03T14:46:53;17.25;;;4.93;;
28166;SDS011;15455;53.376;-6.262;2023-04-03T14:49:41;14.93;;;3.28;;
28166;SDS011;15455;53.376;-6.262;2023-04-03T14:52:30;8.30;;;3.47;;
28166;SDS011;15455;53.376;-6.262;2023-04-03T14:55:18;17.58;;;3.08;;
28166;SDS011;15455;53.376;-6.262;2023-04-03T14:58:05;14.70;;;2.95;;
28166;SDS011;15455;53.376;-6.262;2023-04-03T15:00:50;13.80;;;3.28;;
28166;SDS011;15455;53.376;-6.262;2023-04-03T15:03:36;13.48;;;2.90;;
28166;SDS011;15455;53.376;-6.262;2023-04-03T15:06:22;16.80;;;2.95;;
28166;SDS011;15455;53.376;-6.262;2023-04-03T15:12:08;19.92;;;3.72;;
28166;SDS011;15455;53.376;-6.262;2023-04-03T15:14:55;9.65;;;2.78;;
28166;SDS011;15455;53.376;-6.262;2023-04-03T15:17:47;12.55;;;3.20;;
28166;SDS011;15455;53.376;-6.262;2023-04-03T15:23:24;10.18;;;2.95;;
28166;SDS011;15455;53.376;-6.262;2023-04-03T15:26:11;12.30;;;2.08;;
28166;SDS011;15455;53.376;-6.262;2023-04-03T15:28:56;8.65;;;2.88;;
28166;SDS011;15455;53.376;-6.262;2023-04-03T15:31:42;11.45;;;3.00;;
28166;SDS011;15455;53.376;-6.262;2023-04-03T15:34:28;11.45;;;2.95;;
28166;SDS011;15455;53.376;-6.262;2023-04-03T15:37:14;9.20;;;2.72;;
28166;SDS011;15455;53.376;-6.262;2023-04-03T15:40:00;10.90;;;2.50;;
28166;SDS011;15455;53.376;-6.262;2023-04-03T15:42:46;12.45;;;3.03;;
28166;SDS011;15455;53.376;-6.262;2023-04-03T15:45:31;12.30;;;2.58;;
28166;SDS011;15455;53.376;-6.262;2023-04-03T15:48:18;12.02;;;3.15;;
28166;SDS011;15455;53.376;-6.262;2023-04-03T15:51:05;10.68;;;2.80;;
28166;SDS011;15455;53.376;-6.262;2023-04-03T15:53:52;15.20;;;2.92;;
28166;SDS011;15455;53.376;-6.262;2023-04-03T15:56:37;13.90;;;3.35;;
28166;SDS011;15455;53.376;-6.262;2023-04-03T15:59:23;16.20;;;3.03;;
28166;SDS011;15455;53.376;-6.262;2023-04-03T16:02:08;8.73;;;2.90;;
28166;SDS011;15455;53.376;-6.262;2023-04-03T16:04:58;14.80;;;3.35;;
28166;SDS011;15455;53.376;-6.262;2023-04-03T16:07:44;15.95;;;3.72;;
28166;SDS011;15455;53.376;-6.262;2023-04-03T16:10:30;13.57;;;4.03;;
28166;SDS011;15455;53.376;-6.262;2023-04-03T16:13:15;14.93;;;3.60;;
28166;SDS011;15455;53.376;-6.262;2023-04-03T16:16:01;13.18;;;2.97;;
28166;SDS011;15455;53.376;-6.262;2023-04-03T16:18:48;12.93;;;2.85;;
28166;SDS011;15455;53.376;-6.262;2023-04-03T16:21:33;17.83;;;2.85;;
28166;SDS011;15455;53.376;-6.262;2023-04-03T16:24:19;18.40;;;3.05;;
28166;SDS011;15455;53.376;-6.262;2023-04-03T16:27:04;16.73;;;2.88;;
28166;SDS011;15455;53.376;-6.262;2023-04-03T16:29:50;10.20;;;3.28;;
28166;SDS011;15455;53.376;-6.262;2023-04-03T16:32:36;14.57;;;3.10;;
28166;SDS011;15455;53.376;-6.262;2023-04-03T16:35:23;19.65;;;6.05;;
28166;SDS011;15455;53.376;-6.262;2023-04-03T16:38:08;23.85;;;8.30;;
28166;SDS011;15455;53.376;-6.262;2023-04-03T16:40:54;26.75;;;9.18;;
28166;SDS011;15455;53.376;-6.262;2023-04-03T16:43:42;30.42;;;9.60;;
28166;SDS011;15455;53.376;-6.262;2023-04-03T16:46:27;32.58;;;12.63;;
28166;SDS011;15455;53.376;-6.262;2023-04-03T16:49:13;25.13;;;9.10;;
28166;SDS011;15455;53.376;-6.262;2023-04-03T16:51:58;18.83;;;7.18;;
28166;SDS011;15455;53.376;-6.262;2023-04-03T16:54:47;17.90;;;4.50;;
28166;SDS011;15455;53.376;-6.262;2023-04-03T16:57:33;19.27;;;3.97;;
28166;SDS011;15455;53.376;-6.262;2023-04-03T17:00:18;12.05;;;3.42;;
28166;SDS011;15455;53.376;-6.262;2023-04-03T17:03:04;19.45;;;3.92;;
28166;SDS011;15455;53.376;-6.262;2023-04-03T17:05:50;9.18;;;2.92;;
28166;SDS011;15455;53.376;-6.262;2023-04-03T17:08:35;16.85;;;4.10;;
28166;SDS011;15455;53.376;-6.262;2023-04-03T17:11:21;15.05;;;3.15;;
28166;SDS011;15455;53.376;-6.262;2023-04-03T17:14:07;15.57;;;3.90;;
28166;SDS011;15455;53.376;-6.262;2023-04-03T17:16:52;14.77;;;3.15;;
28166;SDS011;15455;53.376;-6.262;2023-04-03T17:19:38;16.35;;;3.22;;
28166;SDS011;15455;53.376;-6.262;2023-04-03T17:22:24;13.50;;;3.63;;
28166;SDS011;15455;53.376;-6.262;2023-04-03T17:25:10;18.38;;;3.58;;
28166;SDS011;15455;53.376;-6.262;2023-04-03T17:27:56;12.38;;;3.38;;
28166;SDS011;15455;53.376;-6.262;2023-04-03T17:30:41;13.65;;;3.83;;
28166;SDS011;15455;53.376;-6.262;2023-04-03T17:33:26;19.65;;;3.67;;
28166;SDS011;15455;53.376;-6.262;2023-04-03T17:36:14;13.52;;;3.70;;
28166;SDS011;15455;53.376;-6.262;2023-04-03T17:39:00;12.95;;;2.70;;
28166;SDS011;15455;53.376;-6.262;2023-04-03T17:41:46;14.68;;;3.47;;
28166;SDS011;15455;53.376;-6.262;2023-04-03T17:44:33;18.92;;;3.72;;
28166;SDS011;15455;53.376;-6.262;2023-04-03T17:47:18;12.13;;;3.85;;
28166;SDS011;15455;53.376;-6.262;2023-04-03T17:50:04;13.82;;;2.97;;
28166;SDS011;15455;53.376;-6.262;2023-04-03T17:52:50;16.23;;;3.10;;
28166;SDS011;15455;53.376;-6.262;2023-04-03T17:55:36;15.38;;;3.42;;
28166;SDS011;15455;53.376;-6.262;2023-04-03T17:58:23;17.15;;;2.83;;
28166;SDS011;15455;53.376;-6.262;2023-04-03T18:01:09;14.52;;;4.32;;
28166;SDS011;15455;53.376;-6.262;2023-04-03T18:03:57;14.73;;;3.92;;
28166;SDS011;15455;53.376;-6.262;2023-04-03T18:06:45;10.98;;;3.17;;
28166;SDS011;15455;53.376;-6.262;2023-04-03T18:09:36;12.23;;;2.97;;
28166;SDS011;15455;53.376;-6.262;2023-04-03T18:12:25;14.80;;;3.00;;